Time;durP1;ratioP1;P1;durP2;ratioP2;P2;SDS_P1;SDS_P2;PMS_P1;PMS_P2;Temp;Humidity;BMP_temperature;BMP_pressure;BME280_temperature;BME280_humidity;BME280_pressure;Samples;Min_cycle;Max_cycle;Signal;HPM_P1;HPM_P2
2022/08/24 00:00:06;;;;;;;2.78;2.35;;;21.90;99.90;;;;;;5078357;28;20123;-59
2022/08/24 00:02:32;;;;;;;2.95;2.10;;;21.90;99.90;;;;;;5078339;28;20029;-59
2022/08/24 00:04:57;;;;;;;3.95;2.28;;;21.90;99.90;;;;;;5078124;28;20031;-59
2022/08/24 00:07:24;;;;;;;2.05;1.90;;;21.90;99.90;;;;;;5078035;28;20094;-59
2022/08/24 00:09:50;;;;;;;4.05;2.30;;;21.80;99.90;;;;;;5077951;28;20032;-59
2022/08/24 00:12:16;;;;;;;3.50;2.08;;;21.80;99.90;;;;;;5077134;28;20048;-59
2022/08/24 00:14:42;;;;;;;3.35;1.80;;;21.80;99.90;;;;;;5077248;28;20048;-59
2022/08/24 00:17:08;;;;;;;2.40;2.00;;;21.70;99.90;;;;;;5076695;28;20155;-58
2022/08/24 00:19:35;;;;;;;2.65;2.10;;;21.80;99.90;;;;;;5077444;28;20028;-59
2022/08/24 00:22:00;;;;;;;2.60;2.20;;;21.90;99.90;;;;;;5077022;28;20355;-59
2022/08/24 00:24:26;;;;;;;2.45;2.25;;;21.80;99.90;;;;;;5077119;28;20108;-58
2022/08/24 00:26:53;;;;;;;2.45;2.00;;;21.90;99.90;;;;;;5077360;28;20408;-59
2022/08/24 00:29:20;;;;;;;2.67;2.10;;;21.80;99.90;;;;;;5077272;28;20040;-59
2022/08/24 00:31:47;;;;;;;2.90;1.80;;;21.70;99.90;;;;;;5077135;28;20341;-59
2022/08/24 00:34:13;;;;;;;3.28;2.00;;;21.60;99.90;;;;;;5076252;28;20052;-59
2022/08/24 00:36:40;;;;;;;2.90;1.95;;;21.60;99.90;;;;;;5076778;28;20311;-59
2022/08/24 00:39:07;;;;;;;2.28;1.60;;;21.50;99.90;;;;;;5076846;28;20304;-59
2022/08/24 00:41:34;;;;;;;3.53;2.10;;;21.50;99.90;;;;;;5076009;28;20020;-59
2022/08/24 00:44:03;;;;;;;2.45;1.77;;;21.50;99.90;;;;;;5077051;28;20338;-59
2022/08/24 00:46:36;;;;;;;2.45;1.60;;;21.40;99.90;;;;;;5077106;28;20356;-59
2022/08/24 00:49:07;;;;;;;2.10;1.90;;;21.40;99.90;;;;;;5076730;28;20032;-59
2022/08/24 00:51:39;;;;;;;2.55;1.70;;;21.30;99.90;;;;;;5077147;28;20048;-59
2022/08/24 00:54:11;;;;;;;1.90;1.70;;;21.20;99.90;;;;;;5076952;28;20021;-59
2022/08/24 00:57:00;;;;;;;3.03;1.85;;;21.30;99.90;;;;;;5076572;28;20039;-59
2022/08/24 00:59:31;;;;;;;2.55;2.00;;;21.20;99.90;;;;;;5075606;28;20028;-59
2022/08/24 01:01:58;;;;;;;1.52;1.42;;;21.20;99.90;;;;;;5076680;28;20028;-59
2022/08/24 01:04:31;;;;;;;2.72;1.90;;;21.10;99.90;;;;;;5075711;28;20068;-59
2022/08/24 01:06:57;;;;;;;2.17;1.95;;;21.10;99.90;;;;;;5076410;28;20024;-58
2022/08/24 01:09:23;;;;;;;2.42;1.80;;;21.10;99.90;;;;;;5076182;28;20055;-59
2022/08/24 01:11:49;;;;;;;3.13;2.13;;;21.00;99.90;;;;;;5037438;28;1124186;-59
2022/08/24 01:14:17;;;;;;;2.33;1.88;;;21.20;99.90;;;;;;5077370;28;20098;-59
2022/08/24 01:19:35;;;;;;;2.13;1.92;;;21.10;99.90;;;;;;5076286;28;20096;-58
2022/08/24 01:22:15;;;;;;;;;;;21.10;99.90;;;;;;5077342;28;20366;-59
2022/08/24 01:24:42;;;;;;;2.50;2.30;;;21.20;99.90;;;;;;5077199;28;19961;-59
2022/08/24 01:27:10;;;;;;;3.17;2.28;;;21.20;99.90;;;;;;5076136;28;20384;-59
2022/08/24 01:29:37;;;;;;;2.65;2.13;;;21.20;99.90;;;;;;5076104;28;20035;-59
2022/08/24 01:32:03;;;;;;;2.88;2.47;;;21.30;99.90;;;;;;5076771;28;20029;-59
2022/08/24 01:34:29;;;;;;;2.40;2.20;;;21.10;99.90;;;;;;5076989;28;20040;-60
2022/08/24 01:36:56;;;;;;;3.50;2.72;;;21.20;99.90;;;;;;5059098;28;20316;-60
2022/08/24 01:39:36;;;;;;;3.65;2.72;;;21.10;99.90;;;;;;5076838;28;20036;-59
2022/08/24 01:42:03;;;;;;;2.80;2.60;;;21.00;99.90;;;;;;5075995;28;20021;-60
2022/08/24 01:44:33;;;;;;;4.15;2.88;;;21.10;99.90;;;;;;5075936;28;20043;-59
2022/08/24 01:47:00;;;;;;;2.92;2.47;;;21.00;99.90;;;;;;5076450;28;20028;-59
2022/08/24 01:49:33;;;;;;;3.13;2.83;;;21.00;99.90;;;;;;5076871;28;20033;-59
2022/08/24 01:51:59;;;;;;;;;;;21.00;99.90;;;;;;5076302;28;20054;-59
2022/08/24 01:54:26;;;;;;;4.88;2.65;;;21.00;99.90;;;;;;5075611;28;19913;-60
2022/08/24 01:56:52;;;;;;;3.78;2.75;;;20.90;99.90;;;;;;5075503;28;20044;-60
2022/08/24 01:59:19;;;;;;;3.17;2.88;;;20.90;99.90;;;;;;5075824;28;20041;-60
2022/08/24 02:02:08;;;;;;;3.80;2.80;;;20.90;99.90;;;;;;5075769;28;20054;-60
2022/08/24 02:04:34;;;;;;;2.78;2.40;;;20.90;99.90;;;;;;5075844;28;20082;-60
2022/08/24 02:07:00;;;;;;;4.78;2.90;;;20.90;99.90;;;;;;5076372;28;20123;-59
2022/08/24 02:09:27;;;;;;;2.72;2.38;;;20.90;99.90;;;;;;5075509;28;20036;-60
2022/08/24 02:11:54;;;;;;;2.70;2.50;;;20.80;99.90;;;;;;5076096;28;20105;-59
2022/08/24 02:14:21;;;;;;;3.10;2.80;;;20.80;99.90;;;;;;5080199;28;20029;-60
2022/08/24 02:16:46;;;;;;;5.25;3.10;;;20.80;99.90;;;;;;5079417;28;20029;-60
2022/08/24 02:19:13;;;;;;;2.63;2.22;;;20.90;99.90;;;;;;5080593;28;20029;-60
2022/08/24 02:21:39;;;;;;;2.55;2.38;;;20.90;99.90;;;;;;5079772;28;20414;-60
2022/08/24 02:24:06;;;;;;;2.67;2.47;;;20.80;99.90;;;;;;5062769;28;20016;-59
2022/08/24 02:26:32;;;;;;;2.60;2.35;;;20.80;99.90;;;;;;5080640;28;20036;-59
2022/08/24 02:28:58;;;;;;;2.88;2.67;;;20.80;99.90;;;;;;5079384;28;20028;-59
2022/08/24 02:31:24;;;;;;;6.63;2.95;;;20.80;99.90;;;;;;5080564;28;20029;-60
2022/08/24 02:33:50;;;;;;;3.00;2.60;;;20.80;99.90;;;;;;5079126;28;20334;-59
2022/08/24 02:36:16;;;;;;;3.10;2.80;;;20.70;99.90;;;;;;5079235;28;20024;-60
2022/08/24 02:38:43;;;;;;;2.97;2.67;;;20.60;99.90;;;;;;5079174;28;20029;-59
2022/08/24 02:41:14;;;;;;;2.78;2.58;;;20.60;99.90;;;;;;5079037;28;20098;-59
2022/08/24 02:43:40;;;;;;;2.55;2.35;;;20.60;99.90;;;;;;5079874;28;20112;-59
2022/08/24 02:46:06;;;;;;;4.70;3.08;;;20.60;99.90;;;;;;5080422;28;20028;-59
2022/08/24 02:48:33;;;;;;;2.80;2.60;;;20.50;99.90;;;;;;5078824;28;20040;-59
2022/08/24 02:50:59;;;;;;;3.10;2.55;;;20.50;99.90;;;;;;5078920;28;20043;-59
2022/08/24 02:53:26;;;;;;;3.55;2.60;;;20.60;99.90;;;;;;5078988;28;20029;-59
2022/08/24 02:55:51;;;;;;;3.05;2.45;;;20.60;99.90;;;;;;5078904;28;20032;-59
2022/08/24 02:58:17;;;;;;;2.80;2.60;;;20.50;99.90;;;;;;5078791;28;20342;-59
2022/08/24 03:00:47;;;;;;;3.13;2.80;;;20.50;99.90;;;;;;5079583;28;20107;-60
2022/08/24 03:03:15;;;;;;;3.15;2.85;;;20.60;99.90;;;;;;5078837;28;20020;-59
2022/08/24 03:05:41;;;;;;;4.22;3.40;;;20.60;99.90;;;;;;5079383;28;20086;-59
2022/08/24 03:08:07;;;;;;;4.10;3.28;;;20.60;99.90;;;;;;5078753;28;20032;-59
2022/08/24 03:10:34;;;;;;;4.00;3.60;;;20.60;99.90;;;;;;5079286;28;20075;-61
2022/08/24 03:13:01;;;;;;;3.58;3.22;;;20.50;99.90;;;;;;5078728;28;20033;-59
2022/08/24 03:15:28;;;;;;;4.60;3.40;;;20.50;99.90;;;;;;5079357;28;20029;-59
2022/08/24 03:17:55;;;;;;;3.13;2.80;;;20.50;99.90;;;;;;5079042;28;20040;-59
2022/08/24 03:20:22;;;;;;;3.50;3.20;;;20.50;99.90;;;;;;5078524;28;20020;-59
2022/08/24 03:22:49;;;;;;;3.70;3.35;;;20.40;99.90;;;;;;5078922;28;20020;-59
2022/08/24 03:25:17;;;;;;;4.55;3.53;;;20.40;99.90;;;;;;5079024;28;20029;-59
2022/08/24 03:27:43;;;;;;;5.25;3.30;;;20.50;99.90;;;;;;5078334;28;20029;-58
2022/08/24 03:30:14;;;;;;;3.90;3.60;;;20.40;99.90;;;;;;5078285;28;20032;-59
2022/08/24 03:32:40;;;;;;;4.97;3.97;;;20.30;99.90;;;;;;5079350;28;20028;-58
2022/08/24 03:35:07;;;;;;;4.15;3.45;;;20.30;99.90;;;;;;5061528;28;20036;-58
2022/08/24 03:37:34;;;;;;;3.97;3.58;;;20.30;99.90;;;;;;5078026;28;20029;-59
2022/08/24 03:40:00;;;;;;;4.10;3.60;;;20.20;99.90;;;;;;5078032;28;20039;-59
2022/08/24 03:42:25;;;;;;;3.90;3.50;;;20.20;99.90;;;;;;5077962;28;20036;-60
2022/08/24 03:44:51;;;;;;;5.90;3.80;;;20.20;99.90;;;;;;5061225;28;20032;-59
2022/08/24 03:47:20;;;;;;;4.72;3.70;;;20.20;99.90;;;;;;5077910;28;20025;-59
2022/08/24 03:49:45;;;;;;;4.43;3.72;;;20.20;99.90;;;;;;5077830;28;20042;-59
2022/08/24 03:52:11;;;;;;;4.05;3.50;;;20.30;99.90;;;;;;5079063;28;20112;-59
2022/08/24 03:54:37;;;;;;;4.20;3.80;;;20.20;99.90;;;;;;5078586;28;20039;-60
2022/08/24 03:57:03;;;;;;;4.60;3.78;;;20.20;99.90;;;;;;5077981;28;20036;-59
2022/08/24 03:59:30;;;;;;;4.88;4.38;;;20.30;99.90;;;;;;5077724;28;20127;-59
2022/08/24 04:01:57;;;;;;;4.45;4.05;;;20.30;99.90;;;;;;5078645;28;20037;-59
2022/08/24 04:04:25;;;;;;;4.78;4.28;;;20.30;99.90;;;;;;5077789;28;20397;-59
2022/08/24 04:06:51;;;;;;;4.60;3.80;;;20.10;99.90;;;;;;5078313;28;20025;-58
2022/08/24 04:09:17;;;;;;;4.25;3.85;;;20.10;99.90;;;;;;5060992;28;20031;-59
2022/08/24 04:11:46;;;;;;;5.20;4.05;;;20.10;99.90;;;;;;5078041;28;20170;-58
2022/08/24 04:14:13;;;;;;;6.13;4.00;;;20.10;99.90;;;;;;5077229;28;20020;-59
2022/08/24 04:16:41;;;;;;;5.05;4.10;;;20.10;99.90;;;;;;5077335;28;20163;-59
2022/08/24 04:19:15;;;;;;;4.35;3.42;;;20.10;99.90;;;;;;5077239;28;20020;-59
2022/08/24 04:21:43;;;;;;;6.88;3.83;;;20.10;99.90;;;;;;5077024;28;20025;-59
2022/08/24 04:24:10;;;;;;;3.65;3.35;;;20.00;99.90;;;;;;5077896;28;20043;-59
2022/08/24 04:26:38;;;;;;;4.80;3.63;;;20.00;99.90;;;;;;5077679;28;20408;-60
2022/08/24 04:31:33;;;;;;;7.28;4.25;;;20.00;99.90;;;;;;5015983;28;20061;-59
2022/08/24 04:33:59;;;;;;;3.90;3.50;;;19.90;99.90;;;;;;5001000;28;20041;-59
2022/08/24 04:36:25;;;;;;;4.57;3.45;;;20.00;99.90;;;;;;5000296;28;20034;-60
2022/08/24 04:38:51;;;;;;;4.88;3.55;;;19.90;99.90;;;;;;5017819;28;20073;-59
2022/08/24 04:41:41;;;;;;;4.55;3.47;;;19.90;99.90;;;;;;5017512;28;20121;-59
2022/08/24 04:44:08;;;;;;;4.70;4.30;;;19.80;99.90;;;;;;5000396;28;20034;-59
2022/08/24 04:46:34;;;;;;;4.30;3.90;;;19.80;99.90;;;;;;5000679;28;20132;-59
2022/08/24 04:49:00;;;;;;;6.80;4.57;;;19.90;99.90;;;;;;5017767;28;20294;-59
2022/08/24 04:51:26;;;;;;;5.30;4.80;;;19.80;99.90;;;;;;5000715;28;20306;-59
2022/08/24 04:53:52;;;;;;;6.72;4.53;;;19.80;99.90;;;;;;5017704;28;20030;-59
2022/08/24 04:56:24;;;;;;;6.13;4.00;;;19.90;99.90;;;;;;5000459;28;20030;-59
2022/08/24 04:58:53;;;;;;;4.72;4.32;;;20.00;99.90;;;;;;5000416;28;20026;-59
2022/08/24 05:01:22;;;;;;;4.88;4.18;;;20.00;99.90;;;;;;5000369;28;20282;-59
2022/08/24 05:03:50;;;;;;;4.70;4.25;;;20.10;99.90;;;;;;5000303;28;20033;-59
2022/08/24 05:06:18;;;;;;;5.38;4.70;;;20.10;99.90;;;;;;5000230;28;20030;-59
2022/08/24 05:08:46;;;;;;;5.57;4.72;;;20.10;99.90;;;;;;5000309;28;20065;-59
2022/08/24 05:11:14;;;;;;;6.93;4.45;;;20.00;99.90;;;;;;5000113;28;20038;-59
2022/08/24 05:13:40;;;;;;;6.18;4.22;;;20.10;99.90;;;;;;5000227;28;20059;-58
2022/08/24 05:16:14;;;;;;;8.93;5.85;;;20.00;99.90;;;;;;5000286;28;20038;-59
2022/08/24 05:18:41;;;;;;;9.55;6.22;;;20.10;99.90;;;;;;5017709;28;20124;-59
2022/08/24 05:21:09;;;;;;;7.45;5.28;;;20.10;99.90;;;;;;5000008;28;20060;-59
2022/08/24 05:23:37;;;;;;;6.22;4.70;;;20.10;99.90;;;;;;5000491;28;20032;-59
2022/08/24 05:26:05;;;;;;;8.23;4.28;;;20.10;99.90;;;;;;5000156;28;20185;-59
2022/08/24 05:28:30;;;;;;;5.60;4.22;;;20.20;99.90;;;;;;5017244;28;20030;-58
2022/08/24 05:31:15;;;;;;;4.63;4.22;;;20.30;99.90;;;;;;4999816;28;20053;-58
2022/08/24 05:33:41;;;;;;;6.82;3.30;;;20.40;99.90;;;;;;5017663;28;20105;-59
2022/08/24 05:36:18;;;;;;;4.80;4.10;;;20.40;99.90;;;;;;5017169;28;20121;-60
2022/08/24 05:38:44;;;;;;;7.25;4.32;;;20.50;99.90;;;;;;4999946;28;20034;-59
2022/08/24 05:41:10;;;;;;;4.88;4.15;;;20.60;99.90;;;;;;5000238;28;20458;-59
2022/08/24 05:43:38;;;;;;;6.10;4.32;;;20.60;99.90;;;;;;4999745;28;20030;-60
2022/08/24 05:46:04;;;;;;;6.55;4.93;;;20.50;99.90;;;;;;5016233;28;20030;-59
2022/08/24 05:48:30;;;;;;;5.43;4.03;;;20.50;99.90;;;;;;5017089;28;20263;-60
2022/08/24 05:50:59;;;;;;;4.30;3.90;;;20.60;99.90;;;;;;5017405;28;20045;-60
2022/08/24 05:53:29;;;;;;;4.60;4.20;;;20.70;99.90;;;;;;4999823;28;20034;-60
2022/08/24 05:55:55;;;;;;;6.00;4.40;;;20.70;99.90;;;;;;4999797;28;20038;-59
2022/08/24 05:58:21;;;;;;;7.13;4.53;;;20.90;99.90;;;;;;4999805;28;20322;-61
2022/08/24 06:00:49;;;;;;;4.75;4.25;;;20.90;99.90;;;;;;4999791;28;20037;-60
2022/08/24 06:03:15;;;;;;;11.25;5.28;;;21.00;99.90;;;;;;5017393;28;20290;-60
2022/08/24 06:05:47;;;;;;;5.80;4.68;;;21.10;99.90;;;;;;5000070;28;20045;-60
2022/08/24 06:08:14;;;;;;;6.40;5.72;;;21.20;99.90;;;;;;4999463;28;20096;-60
2022/08/24 06:10:48;;;;;;;7.20;6.32;;;21.20;99.90;;;;;;4999681;28;20033;-60
2022/08/24 06:13:15;;;;;;;8.02;6.57;;;21.40;99.90;;;;;;4999685;28;20030;-60
2022/08/24 06:15:42;;;;;;;10.55;7.38;;;21.50;99.90;;;;;;4999644;28;20026;-60
2022/08/24 06:18:09;;;;;;;9.40;7.10;;;21.60;99.90;;;;;;4999545;28;20030;-59
2022/08/24 06:20:41;;;;;;;12.02;9.27;;;21.80;99.90;;;;;;4983517;28;20032;-59
2022/08/24 06:23:08;;;;;;;8.55;7.25;;;21.90;99.90;;;;;;5016754;28;20030;-60
2022/08/24 06:28:24;;;;;;;12.68;11.00;;;22.20;99.90;;;;;;5000270;28;20099;-60
2022/08/24 06:31:01;;;;;;;15.27;13.43;;;22.40;99.90;;;;;;5016507;28;20081;-60
2022/08/24 06:33:28;;;;;;;17.35;12.75;;;22.60;99.90;;;;;;4999860;28;20022;-60
2022/08/24 06:35:56;;;;;;;19.55;15.75;;;22.80;99.90;;;;;;4983889;28;20420;-59
2022/08/24 06:38:22;;;;;;;16.88;13.98;;;22.80;99.90;;;;;;4999617;28;20041;-60
2022/08/24 06:40:50;;;;;;;18.05;14.90;;;22.80;99.90;;;;;;4999463;28;20029;-61
2022/08/24 06:43:17;;;;;;;17.65;13.85;;;23.00;99.90;;;;;;5016583;28;20068;-60
2022/08/24 06:45:54;;;;;;;18.35;14.38;;;23.10;99.90;;;;;;4999400;28;20026;-59
2022/08/24 06:48:25;;;;;;;19.85;16.00;;;23.30;99.90;;;;;;4999375;28;20030;-60
2022/08/24 06:50:52;;;;;;;17.48;12.73;;;23.20;99.90;;;;;;4983405;28;20041;-59
2022/08/24 06:53:18;;;;;;;13.02;10.70;;;23.30;99.90;;;;;;5016649;28;20026;-60
2022/08/24 06:55:48;;;;;;;12.90;11.48;;;23.50;99.90;;;;;;4999420;28;20068;-60
2022/08/24 06:58:15;;;;;;;12.70;11.15;;;23.60;99.90;;;;;;5000281;28;20033;-60
2022/08/24 07:00:41;;;;;;;19.27;15.98;;;23.70;99.90;;;;;;5019957;28;20322;-61
2022/08/24 07:03:07;;;;;;;18.67;15.70;;;23.70;99.90;;;;;;5003562;28;20034;-60
2022/08/24 07:05:34;;;;;;;16.15;14.48;;;23.60;99.90;;;;;;4986692;28;20049;-59
2022/08/24 07:08:21;;;;;;;14.25;11.20;;;23.70;99.90;;;;;;4998901;28;20053;-59
2022/08/24 07:10:47;;;;;;;15.68;13.55;;;24.00;99.90;;;;;;5019724;28;20038;-60
2022/08/24 07:13:14;;;;;;;11.30;9.95;;;24.00;99.90;;;;;;5002335;28;20033;-60
2022/08/24 07:15:41;;;;;;;15.57;12.23;;;24.30;99.90;;;;;;5002562;28;20155;-59
2022/08/24 07:18:15;;;;;;;14.38;12.88;;;24.40;99.90;;;;;;5002461;28;20025;-59
2022/08/24 07:20:46;;;;;;;13.68;11.68;;;24.50;99.90;;;;;;5002513;28;20026;-60
2022/08/24 07:23:18;;;;;;;10.38;9.38;;;24.50;99.90;;;;;;5002546;28;20040;-59
2022/08/24 07:25:46;;;;;;;12.88;10.48;;;24.50;99.90;;;;;;5002548;28;20045;-60
2022/08/24 07:28:12;;;;;;;13.35;10.80;;;24.50;99.90;;;;;;5002387;28;20026;-60
2022/08/24 07:30:41;;;;;;;18.40;14.20;;;24.60;99.90;;;;;;5002102;28;20058;-59
2022/08/24 07:33:07;;;;;;;11.90;10.70;;;24.80;99.90;;;;;;5002317;28;20061;-59
2022/08/24 07:35:37;;;;;;;15.95;13.13;;;24.80;99.90;;;;;;5002179;28;20038;-59
2022/08/24 07:38:05;;;;;;;11.30;9.38;;;24.80;99.90;;;;;;5019173;28;20109;-59
2022/08/24 07:40:32;;;;;;;15.20;11.00;;;24.80;99.90;;;;;;4986228;28;20026;-59
2022/08/24 07:42:58;;;;;;;10.20;9.30;;;24.90;99.90;;;;;;5002031;28;20417;-59
2022/08/24 07:45:25;;;;;;;14.63;11.13;;;24.90;99.90;;;;;;4985025;28;20022;-59
2022/08/24 07:47:51;;;;;;;14.48;12.43;;;24.90;99.90;;;;;;4982868;28;20045;-59
2022/08/24 07:50:40;;;;;;;15.23;13.35;;;24.80;99.90;;;;;;4982485;28;20043;-59
2022/08/24 07:53:06;;;;;;;12.65;11.23;;;24.90;99.90;;;;;;4999686;28;20073;-59
2022/08/24 07:55:32;;;;;;;16.38;13.80;;;25.00;99.90;;;;;;4982394;28;20133;-63
2022/08/24 07:57:58;;;;;;;15.02;13.43;;;25.10;99.90;;;;;;4999113;28;20041;-59
2022/08/24 08:00:24;;;;;;;18.52;14.75;;;25.30;99.90;;;;;;4949947;28;20406;-59
2022/08/24 08:02:56;;;;;;;15.13;12.80;;;25.50;99.90;;;;;;4983073;28;20286;-60
2022/08/24 08:05:23;;;;;;;10.68;9.35;;;25.80;99.90;;;;;;4966216;28;20277;-60
2022/08/24 08:07:51;;;;;;;10.63;9.52;;;25.80;99.90;;;;;;4982107;28;20042;-60
2022/08/24 08:10:18;;;;;;;8.18;6.70;;;25.70;99.90;;;;;;4981399;28;20406;-59
2022/08/24 08:12:45;;;;;;;7.25;6.60;;;25.80;99.90;;;;;;4982008;28;20041;-59
2022/08/24 08:15:11;;;;;;;9.20;6.72;;;25.80;99.90;;;;;;4998973;28;20030;-60
2022/08/24 08:17:45;;;;;;;7.43;6.35;;;25.80;99.90;;;;;;4982667;28;20141;-59
2022/08/24 08:20:12;;;;;;;8.15;6.13;;;25.90;99.90;;;;;;4981865;28;20366;-59
2022/08/24 08:25:51;;;;;;;6.90;6.30;;;26.00;99.90;;;;;;4987322;28;20046;-60
2022/08/24 08:28:25;;;;;;;6.45;5.65;;;26.00;99.90;;;;;;4981812;28;20046;-60
2022/08/24 08:30:51;;;;;;;5.43;4.93;;;26.00;99.90;;;;;;4981647;28;20059;-60
2022/08/24 08:33:17;;;;;;;7.45;5.40;;;25.90;99.90;;;;;;4998539;28;20120;-60
2022/08/24 08:35:43;;;;;;;8.40;7.53;;;25.90;99.90;;;;;;4981666;28;20364;-60
2022/08/24 08:38:10;;;;;;;5.63;5.05;;;26.00;99.90;;;;;;4981415;28;20034;-60
2022/08/24 08:40:59;;;;;;;7.80;5.55;;;26.10;99.90;;;;;;4981409;28;20042;-60
2022/08/24 08:43:47;;;;;;;6.50;5.63;;;26.20;99.90;;;;;;4981498;28;20037;-60
2022/08/24 08:46:16;;;;;;;6.70;4.70;;;26.40;99.90;;;;;;4981411;28;20071;-59
2022/08/24 08:49:05;;;;;;;5.15;3.08;;;26.40;99.90;;;;;;4991397;28;20034;-59
2022/08/24 08:51:51;;;;;;;4.45;3.42;;;26.70;99.90;;;;;;4981295;28;20037;-60
2022/08/24 08:55:10;;;;;;;3.75;2.75;;;26.80;99.90;;;;;;4981329;28;20395;-60
2022/08/24 08:57:42;;;;;;;2.80;1.75;;;26.90;99.90;;;;;;4952697;28;20374;-59
2022/08/24 09:00:21;;;;;;;3.85;2.10;;;27.00;99.90;;;;;;4998114;28;20026;-60
2022/08/24 09:03:08;;;;;;;3.25;2.60;;;27.20;99.90;;;;;;4981000;28;20424;-59
2022/08/24 09:05:47;;;;;;;3.13;2.90;;;27.20;99.90;;;;;;4981314;28;20077;-60
2022/08/24 09:08:34;;;;;;;;;;;27.50;99.90;;;;;;4981375;28;20041;-59
2022/08/24 09:11:31;;;;;;;6.32;3.75;;;27.50;99.90;;;;;;4964828;28;19909;-60
2022/08/24 09:14:42;;;;;;;5.47;4.10;;;27.50;99.90;;;;;;4980862;28;20310;-60
2022/08/24 09:17:45;;;;;;;3.90;3.20;;;27.60;99.90;;;;;;4997251;28;20051;-60
2022/08/24 09:20:17;;;;;;;5.05;2.50;;;27.80;99.90;;;;;;4964693;28;20414;-60
2022/08/24 09:22:47;;;;;;;8.20;4.10;;;28.00;99.90;;;;;;4997522;28;20343;-60
2022/08/24 09:25:23;;;;;;;6.72;3.40;;;28.30;99.90;;;;;;4980632;28;20034;-60
2022/08/24 09:28:04;;;;;;;3.78;2.08;;;28.30;99.90;;;;;;4997669;28;20042;-60
2022/08/24 09:30:47;;;;;;;3.00;1.90;;;28.20;99.90;;;;;;4997367;28;20050;-60
2022/08/24 09:33:49;;;;;;;2.70;1.88;;;28.20;99.90;;;;;;4998244;28;20298;-60
2022/08/24 09:36:30;;;;;;;1.60;1.40;;;28.40;99.90;;;;;;4997956;28;20030;-60
2022/08/24 09:39:02;;;;;;;6.47;2.00;;;28.50;99.90;;;;;;4997856;28;20122;-61
2022/08/24 09:41:50;;;;;;;3.10;1.70;;;28.60;99.90;;;;;;4997603;28;20040;-60
2022/08/24 09:44:35;;;;;;;2.33;1.80;;;28.70;99.90;;;;;;4997457;28;20031;-60
2022/08/24 09:47:38;;;;;;;3.42;2.03;;;28.90;99.90;;;;;;4997332;28;20023;-60
2022/08/24 09:50:55;;;;;;;2.50;1.90;;;29.10;99.90;;;;;;4980406;28;20041;-60
2022/08/24 09:54:02;;;;;;;3.55;2.90;;;29.40;99.90;;;;;;4975698;28;20045;-60
2022/08/24 09:56:44;;;;;;;3.25;1.95;;;29.60;99.90;;;;;;4975408;28;20074;-60
2022/08/24 09:59:39;;;;;;;3.23;2.93;;;29.70;99.90;;;;;;4997273;28;20035;-60
2022/08/24 10:02:17;;;;;;;4.60;2.35;;;29.60;99.90;;;;;;4980786;28;20027;-60
2022/08/24 10:05:11;;;;;;;3.95;3.53;;;29.40;99.90;;;;;;4997358;28;20026;-60
2022/08/24 10:08:02;;;;;;;2.67;2.47;;;29.70;99.90;;;;;;4997250;28;20387;-60
2022/08/24 10:10:30;;;;;;;3.85;3.20;;;29.80;99.90;;;;;;4997129;28;20038;-60
2022/08/24 10:13:08;;;;;;;4.80;4.38;;;30.00;99.90;;;;;;4997187;28;20041;-59
2022/08/24 10:15:46;;;;;;;5.32;4.47;;;29.50;99.90;;;;;;4997223;28;20042;-59
2022/08/24 10:18:16;;;;;;;3.78;3.22;;;29.10;99.90;;;;;;4997119;28;20026;-60
2022/08/24 10:20:48;;;;;;;4.78;4.25;;;29.00;99.90;;;;;;4980166;28;20040;-61
2022/08/24 10:23:52;;;;;;;5.03;4.47;;;29.70;99.90;;;;;;4980243;28;20105;-60
2022/08/24 10:27:11;;;;;;;3.78;3.03;;;29.70;99.90;;;;;;4997070;28;20035;-60
2022/08/24 10:30:08;;;;;;;4.93;3.85;;;29.80;99.90;;;;;;4994832;28;20130;-60
2022/08/24 10:33:13;;;;;;;6.45;4.78;;;29.10;99.90;;;;;;4997191;28;20038;-60
2022/08/24 10:35:59;;;;;;;6.72;3.78;;;29.20;99.90;;;;;;4983846;28;20027;-61
2022/08/24 10:41:42;;;;;;;5.70;4.25;;;29.70;99.90;;;;;;4983736;28;20034;-60
2022/08/24 10:44:39;;;;;;;4.22;2.90;;;29.70;99.90;;;;;;4983737;28;20105;-60
2022/08/24 10:47:17;;;;;;;4.15;2.60;;;29.90;99.90;;;;;;5000779;28;20373;-60
2022/08/24 10:50:21;;;;;;;8.23;4.65;;;30.10;99.90;;;;;;5000541;28;20100;-60
2022/08/24 10:53:14;;;;;;;3.97;2.97;;;30.60;99.90;;;;;;5000533;28;20030;-60
2022/08/24 10:55:41;;;;;;;4.47;2.95;;;30.80;99.90;;;;;;5000756;28;20101;-60
2022/08/24 10:58:19;;;;;;;5.47;3.42;;;31.80;99.90;;;;;;4983484;28;20038;-60
2022/08/24 11:00:45;;;;;;;7.47;3.10;;;32.80;99.90;;;;;;5000330;28;20387;-61
2022/08/24 11:03:15;;;;;;;3.22;2.33;;;33.10;99.90;;;;;;5000339;28;20049;-61
2022/08/24 11:05:48;;;;;;;6.57;3.28;;;34.20;99.90;;;;;;4984002;28;20027;-60
2022/08/24 11:08:22;;;;;;;4.82;2.28;;;33.90;99.90;;;;;;4983302;28;20042;-61
2022/08/24 11:11:21;;;;;;;5.28;2.60;;;33.80;99.90;;;;;;5000253;28;20299;-61
2022/08/24 11:13:58;;;;;;;4.63;2.63;;;35.10;99.90;;;;;;5000062;28;20042;-61
2022/08/24 11:16:39;;;;;;;3.72;2.20;;;35.90;99.90;;;;;;5000223;28;20294;-61
2022/08/24 11:19:25;;;;;;;5.95;2.50;;;35.10;99.90;;;;;;5000274;28;20383;-59
2022/08/24 11:21:53;;;;;;;3.58;2.00;;;33.50;99.90;;;;;;4992915;28;20354;-60
2022/08/24 11:24:22;;;;;;;2.65;1.65;;;34.70;99.90;;;;;;4999916;28;20019;-62
2022/08/24 11:27:21;;;;;;;4.82;1.98;;;36.40;99.90;;;;;;5000248;28;20042;-60
2022/08/24 11:29:53;;;;;;;3.63;1.65;;;36.20;99.90;;;;;;4980696;28;20105;-60
2022/08/24 11:32:45;;;;;;;4.63;1.45;;;36.40;99.90;;;;;;4999773;28;20293;-61
2022/08/24 11:35:25;;;;;;;3.05;1.60;;;37.60;99.90;;;;;;4999887;28;20029;-61
2022/08/24 11:37:55;;;;;;;2.28;1.42;;;38.50;97.30;;;;;;4999611;28;20073;-61
2022/08/24 11:40:27;;;;;;;8.10;1.67;;;38.70;95.90;;;;;;4999670;28;20030;-61
2022/08/24 11:43:09;;;;;;;4.70;1.70;;;39.80;92.80;;;;;;4999707;28;20058;-60
2022/08/24 11:45:39;;;;;;;3.53;1.30;;;39.10;90.50;;;;;;4999505;28;20044;-61
2022/08/24 11:48:10;;;;;;;4.22;0.93;;;39.70;90.20;;;;;;4999486;28;20260;-61
2022/08/24 11:50:59;;;;;;;;;;;40.30;83.70;;;;;;4999880;28;20303;-61
2022/08/24 11:53:39;;;;;;;4.03;0.98;;;39.70;81.40;;;;;;4982577;28;20242;-61
2022/08/24 11:56:22;;;;;;;3.10;1.00;;;41.20;78.30;;;;;;4999292;28;20065;-61
2022/08/24 11:59:05;;;;;;;2.70;0.80;;;41.70;73.20;;;;;;4999030;28;20379;-62
2022/08/24 12:02:13;;;;;;;2.80;0.90;;;41.50;71.80;;;;;;4999466;28;20063;-61
2022/08/24 12:05:20;;;;;;;2.47;1.02;;;42.20;70.00;;;;;;4958780;29;20039;-61
2022/08/24 12:08:04;;;;;;;1.90;1.00;;;43.10;65.10;;;;;;4998748;28;20050;-61
2022/08/24 12:10:42;;;;;;;3.95;0.82;;;41.50;64.10;;;;;;4999015;28;20038;-60
2022/08/24 12:13:31;;;;;;;4.43;0.80;;;40.00;64.80;;;;;;4999040;28;20030;-60
2022/08/24 12:16:06;;;;;;;3.67;0.90;;;40.20;68.30;;;;;;4999634;28;20049;-61
2022/08/24 12:18:46;;;;;;;2.15;0.90;;;41.20;64.60;;;;;;4999088;28;20441;-61
2022/08/24 12:21:14;;;;;;;1.35;1.00;;;40.70;64.20;;;;;;4998848;28;20093;-62
2022/08/24 12:23:48;;;;;;;1.02;0.63;;;41.50;64.30;;;;;;4998747;28;20117;-61
2022/08/24 12:26:37;;;;;;;2.70;0.80;;;40.70;61.40;;;;;;4981772;28;20045;-60
2022/08/24 12:29:08;;;;;;;1.35;0.68;;;38.60;65.50;;;;;;4998636;28;20038;-61
2022/08/24 12:31:40;;;;;;;;;;;38.70;66.30;;;;;;4999056;28;20350;-61
2022/08/24 12:34:22;;;;;;;1.23;0.70;;;39.90;64.70;;;;;;4981677;28;20286;-62
2022/08/24 12:37:12;;;;;;;2.08;0.70;;;41.10;61.80;;;;;;4981674;28;20346;-61
2022/08/24 12:39:44;;;;;;;2.08;0.77;;;42.20;59.60;;;;;;4998353;28;20101;-61
2022/08/24 12:42:33;;;;;;;3.15;0.80;;;42.60;57.20;;;;;;4998465;28;20105;-61
2022/08/24 12:45:04;;;;;;;3.08;0.80;;;41.80;58.20;;;;;;4975466;28;20125;-61
2022/08/24 12:47:41;;;;;;;1.35;0.65;;;43.10;56.60;;;;;;4998507;28;20080;-61
2022/08/24 12:50:29;;;;;;;1.50;0.80;;;43.70;54.90;;;;;;4998204;28;20115;-61
2022/08/24 12:52:58;;;;;;;1.65;0.75;;;41.90;56.60;;;;;;4998169;28;20034;-61
2022/08/24 12:55:42;;;;;;;1.70;0.68;;;41.00;57.50;;;;;;4997776;28;20295;-61
2022/08/24 12:58:30;;;;;;;1.30;0.77;;;40.50;58.60;;;;;;4997993;28;20069;-61
2022/08/24 13:00:56;;;;;;;1.90;0.82;;;40.10;59.10;;;;;;4998688;28;20037;-61
2022/08/24 13:03:31;;;;;;;1.67;0.60;;;40.10;59.50;;;;;;4998055;28;20050;-60
2022/08/24 13:06:00;;;;;;;1.55;0.65;;;40.80;58.20;;;;;;4998100;28;20176;-61
2022/08/24 13:08:41;;;;;;;5.55;0.95;;;41.70;58.30;;;;;;4997895;28;20065;-61
2022/08/24 13:11:12;;;;;;;1.67;0.90;;;42.60;55.80;;;;;;4980937;28;20061;-62
2022/08/24 13:16:49;;;;;;;3.67;0.80;;;45.40;53.40;;;;;;5074606;28;20075;-61
2022/08/24 13:19:40;;;;;;;2.38;0.90;;;46.80;49.20;;;;;;5076974;28;20032;-62
2022/08/24 13:22:09;;;;;;;;;;;47.00;46.80;;;;;;5077600;28;20061;-59
2022/08/24 13:24:36;;;;;;;1.70;0.85;;;43.40;50.00;;;;;;5076269;28;19912;-59
2022/08/24 13:27:14;;;;;;;3.65;1.00;;;41.40;52.90;;;;;;5077291;28;20396;-59
2022/08/24 13:29:52;;;;;;;1.33;0.90;;;41.50;53.40;;;;;;5059378;28;20396;-59
2022/08/24 13:32:30;;;;;;;1.73;0.80;;;42.00;54.20;;;;;;5077015;28;20071;-60